createdAt,value
2022-10-05T00:02:24.752Z,100650.65
2022-10-05T00:04:57.196Z,100649.42
2022-10-05T00:07:25.229Z,100644.54
2022-10-05T00:09:57.887Z,100645.36
2022-10-05T00:12:28.418Z,100647.23
2022-10-05T00:15:00.775Z,100651.02
2022-10-05T00:17:30.707Z,100654.84
2022-10-05T00:19:58.250Z,100670.66
2022-10-05T00:22:33.863Z,100668.43
2022-10-05T00:25:11.269Z,100661.33
2022-10-05T00:27:39.110Z,100660.80
2022-10-05T00:30:23.279Z,100660.08
2022-10-05T00:32:53.888Z,100653.61
2022-10-05T00:35:25.178Z,100647.83
2022-10-05T00:37:55.098Z,100650.23
2022-10-05T00:40:51.775Z,100651.63
2022-10-05T00:43:21.965Z,100660.13
2022-10-05T00:46:15.967Z,100664.99
2022-10-05T00:49:05.170Z,100656.14
2022-10-05T00:51:37.757Z,100656.66
2022-10-05T00:54:37.350Z,100655.45
2022-10-05T00:57:36.813Z,100651.45
2022-10-05T01:00:13.544Z,100645.36
2022-10-05T01:03:13.126Z,100642.45
2022-10-05T01:06:11.620Z,100635.16
2022-10-05T01:09:01.747Z,100626.66
2022-10-05T01:11:31.874Z,100617.95
2022-10-05T01:14:16.409Z,100618.95
2022-10-05T01:16:47.105Z,100618.05
2022-10-05T01:19:56.888Z,100610.23
2022-10-05T01:22:53.265Z,100619.06
2022-10-05T01:25:38.483Z,100627.55
2022-10-05T01:28:06.058Z,100623.00
2022-10-05T01:30:57.660Z,100609.27
2022-10-05T01:33:29.325Z,100596.79
2022-10-05T01:36:08.999Z,100602.17
2022-10-05T01:39:02.023Z,100596.97
2022-10-05T01:41:44.901Z,100601.11
2022-10-05T01:44:18.030Z,100605.95
2022-10-05T01:47:03.797Z,100611.67
2022-10-05T01:49:47.374Z,100609.61
2022-10-05T01:52:24.523Z,100608.08
2022-10-05T01:55:24.005Z,100609.84
2022-10-05T01:58:06.617Z,100602.56
2022-10-05T02:00:49.713Z,100606.02
2022-10-05T02:03:45.590Z,100604.11
2022-10-05T02:06:32.605Z,100605.19
2022-10-05T02:09:11.708Z,100602.59
2022-10-05T02:11:42.767Z,100604.69
2022-10-05T02:14:20.478Z,100600.38
2022-10-05T02:16:52.518Z,100608.02
2022-10-05T02:19:40.190Z,100606.45
2022-10-05T02:22:17.739Z,100600.39
2022-10-05T02:24:57.614Z,100600.95
2022-10-05T02:27:31.582Z,100606.34
2022-10-05T02:30:06.589Z,100603.73
2022-10-05T02:32:45.776Z,100603.73
2022-10-05T02:35:19.475Z,100596.61
2022-10-05T02:37:46.935Z,100586.55
2022-10-05T02:40:47.501Z,100579.77
2022-10-05T02:43:43.879Z,100574.60
2022-10-05T02:46:44.838Z,100572.00
2022-10-05T02:49:28.763Z,100575.11
2022-10-05T02:52:21.275Z,100573.39
2022-10-05T02:55:03.910Z,100571.87
2022-10-05T02:57:37.287Z,100573.97
2022-10-05T03:00:25.037Z,100578.19
2022-10-05T03:03:14.582Z,100564.96
2022-10-05T03:05:53.377Z,100555.73
2022-10-05T03:08:42.339Z,100552.77
2022-10-05T03:11:41.083Z,100563.69
2022-10-05T03:14:13.822Z,100573.23
2022-10-05T03:17:00.009Z,100581.56
2022-10-05T03:19:54.412Z,100581.21
2022-10-05T03:22:40.423Z,100584.52
2022-10-05T03:25:29.797Z,100595.51
2022-10-05T03:28:16.221Z,100594.48
2022-10-05T03:31:00.482Z,100594.16
2022-10-05T03:33:49.945Z,100596.23
2022-10-05T03:36:37.957Z,100596.06
2022-10-05T03:39:21.498Z,100593.81
2022-10-05T03:42:08.335Z,100592.08
2022-10-05T03:44:51.854Z,100596.25
2022-10-05T03:48:01.517Z,100580.27
2022-10-05T03:50:34.127Z,100585.66
2022-10-05T03:53:25.278Z,100583.40
2022-10-05T03:56:10.662Z,100582.35
2022-10-05T03:58:50.542Z,100573.51
2022-10-05T04:01:25.509Z,100570.55
2022-10-05T04:03:59.438Z,100568.11
2022-10-05T04:06:34.219Z,100565.86
2022-10-05T04:09:20.687Z,100556.98
2022-10-05T04:11:54.884Z,100550.75
2022-10-05T04:14:40.578Z,100550.23
2022-10-05T04:17:17.185Z,100540.49
2022-10-05T04:19:59.138Z,100539.77
2022-10-05T04:22:37.275Z,100536.63
2022-10-05T04:25:29.650Z,100537.65
2022-10-05T04:28:32.201Z,100544.58
2022-10-05T04:31:03.874Z,100555.16
2022-10-05T04:33:33.161Z,100552.54
2022-10-05T04:36:19.546Z,100544.54
2022-10-05T04:39:03.122Z,100538.48
2022-10-05T04:42:00.611Z,100542.48
2022-10-05T04:44:44.100Z,100538.52
2022-10-05T04:47:30.666Z,100530.86
2022-10-05T04:50:10.999Z,100536.80
2022-10-05T04:53:14.769Z,100539.77
2022-10-05T04:56:15.050Z,100537.01
2022-10-05T04:59:13.508Z,100541.69
2022-10-05T05:01:58.547Z,100542.19
2022-10-05T05:04:42.119Z,100536.82
2022-10-05T05:07:16.116Z,100539.24
2022-10-05T05:10:15.661Z,100540.11
2022-10-05T05:13:05.332Z,100539.21
2022-10-05T05:15:51.629Z,100530.70
2022-10-05T05:18:34.032Z,100533.29
2022-10-05T05:21:22.699Z,100530.67
2022-10-05T05:24:11.859Z,100529.64
2022-10-05T05:27:12.284Z,100529.95
2022-10-05T05:30:02.542Z,100534.79
2022-10-05T05:32:41.741Z,100532.52
2022-10-05T05:35:27.863Z,100538.38
2022-10-05T05:38:27.577Z,100543.36
2022-10-05T05:41:11.356Z,100542.77
2022-10-05T05:43:55.043Z,100540.11
2022-10-05T05:47:04.015Z,100538.84
2022-10-05T05:49:50.217Z,100537.96
2022-10-05T05:52:52.671Z,100539.67
2022-10-05T05:55:30.612Z,100549.20
2022-10-05T05:58:32.258Z,100555.45
2022-10-05T06:01:13.195Z,100559.05
2022-10-05T06:04:10.996Z,100559.55
2022-10-05T06:06:58.006Z,100560.40
2022-10-05T06:09:40.434Z,100561.61
2022-10-05T06:12:23.614Z,100566.11
2022-10-05T06:15:23.958Z,100571.10
2022-10-05T06:17:58.841Z,100567.41
2022-10-05T06:20:33.817Z,100552.08
2022-10-05T06:23:18.817Z,100542.30
2022-10-05T06:26:22.604Z,100530.95
2022-10-05T06:29:04.568Z,100524.44
2022-10-05T06:32:04.133Z,100522.95
2022-10-05T06:34:42.033Z,100523.84
2022-10-05T06:37:33.159Z,100517.10
2022-10-05T06:40:15.675Z,100513.83
2022-10-05T06:43:08.087Z,100511.92
2022-10-05T06:46:00.141Z,100508.96
2022-10-05T06:48:58.841Z,100507.67
2022-10-05T06:51:43.967Z,100514.95
2022-10-05T06:54:22.996Z,100522.55
2022-10-05T06:57:04.173Z,100527.75
2022-10-05T07:00:02.056Z,100528.67
2022-10-05T07:02:55.886Z,100526.95
2022-10-05T07:05:46.113Z,100533.42
2022-10-05T07:08:15.981Z,100526.31
2022-10-05T07:11:05.584Z,100521.86
2022-10-05T07:14:05.154Z,100519.66
2022-10-05T07:17:01.660Z,100528.12
2022-10-05T07:19:36.981Z,100536.58
2022-10-05T07:22:20.485Z,100546.91
2022-10-05T07:25:08.340Z,100529.67
2022-10-05T07:27:48.273Z,100486.34
2022-10-05T07:30:19.820Z,100470.13
2022-10-05T07:33:05.688Z,100479.77
2022-10-05T07:36:21.930Z,100485.25
2022-10-05T07:39:01.510Z,100487.20
2022-10-05T07:41:43.774Z,100502.88
2022-10-05T07:44:16.695Z,100494.42
2022-10-05T07:46:58.613Z,100484.96
2022-10-05T07:49:45.170Z,100488.27
2022-10-05T07:52:28.283Z,100484.52
2022-10-05T07:55:31.310Z,100483.17
2022-10-05T07:58:17.684Z,100473.17
2022-10-05T08:01:13.772Z,100467.92
2022-10-05T08:04:03.399Z,100457.58
2022-10-05T08:06:50.207Z,100446.23
2022-10-05T08:09:50.085Z,100446.54
2022-10-05T08:12:37.547Z,100469.35
2022-10-05T08:15:27.313Z,100485.09
2022-10-05T08:18:02.465Z,100490.39
2022-10-05T08:20:33.872Z,100498.58
2022-10-05T08:23:08.782Z,100495.70
2022-10-05T08:26:00.306Z,100500.98
2022-10-05T08:28:38.692Z,100506.34
2022-10-05T08:31:20.947Z,100499.70
2022-10-05T08:33:58.556Z,100487.84
2022-10-05T08:36:58.677Z,100470.27
2022-10-05T08:39:32.003Z,100471.06
2022-10-05T08:42:06.947Z,100470.70
2022-10-05T08:44:57.352Z,100468.17
2022-10-05T08:47:58.307Z,100444.08
2022-10-05T08:50:46.291Z,100460.13
2022-10-05T08:53:33.225Z,100466.91
2022-10-05T08:56:22.195Z,100463.09
2022-10-05T08:59:19.576Z,100462.23
2022-10-05T09:01:50.732Z,100478.42
2022-10-05T09:04:51.625Z,100473.46
2022-10-05T09:07:27.208Z,100462.82
2022-10-05T09:10:24.747Z,100452.73
2022-10-05T09:12:52.207Z,100449.39
2022-10-05T09:15:28.632Z,100456.64
2022-10-05T09:18:28.208Z,100462.53
2022-10-05T09:21:02.961Z,100458.59
2022-10-05T09:23:49.846Z,100456.13
2022-10-05T09:26:49.333Z,100453.25
2022-10-05T09:29:53.242Z,100454.36
2022-10-05T09:32:51.703Z,100452.70
2022-10-05T09:35:57.496Z,100446.77
2022-10-05T09:38:57.000Z,100443.52
2022-10-05T09:41:27.121Z,100442.73
2022-10-05T09:44:18.436Z,100451.22
2022-10-05T09:47:25.357Z,100457.08
2022-10-05T09:50:07.979Z,100452.33
2022-10-05T09:52:51.586Z,100460.06
2022-10-05T09:55:35.074Z,100459.14
2022-10-05T09:58:17.546Z,100455.44
2022-10-05T10:01:03.690Z,100455.81
2022-10-05T10:03:56.796Z,100459.34
2022-10-05T10:06:46.514Z,100463.09
2022-10-05T10:09:46.109Z,100460.38
2022-10-05T10:12:42.286Z,100457.64
2022-10-05T10:15:40.824Z,100461.98
2022-10-05T10:18:20.840Z,100456.84
2022-10-05T10:21:20.371Z,100451.13
2022-10-05T10:24:14.806Z,100450.20
2022-10-05T10:26:49.569Z,100448.86
2022-10-05T10:29:39.783Z,100444.52
2022-10-05T10:32:13.412Z,100439.46
2022-10-05T10:35:20.396Z,100443.35
2022-10-05T10:38:20.249Z,100439.52
2022-10-05T10:41:06.042Z,100444.70
2022-10-05T10:44:05.729Z,100437.02
2022-10-05T10:47:07.223Z,100434.50
2022-10-05T10:49:53.445Z,100428.05
2022-10-05T10:53:03.387Z,100432.63
2022-10-05T10:55:38.022Z,100435.19
2022-10-05T10:58:36.766Z,100442.73
2022-10-05T11:01:36.320Z,100438.92
2022-10-05T11:04:09.892Z,100443.80
2022-10-05T11:07:09.303Z,100447.20
2022-10-05T11:09:55.525Z,100448.14
2022-10-05T11:12:41.214Z,100456.84
2022-10-05T11:15:25.427Z,100451.11
2022-10-05T11:18:01.240Z,100448.15
2022-10-05T11:20:44.724Z,100447.21
2022-10-05T11:23:29.590Z,100446.59
2022-10-05T11:25:57.129Z,100442.98
2022-10-05T11:28:50.118Z,100452.61
2022-10-05T11:31:21.077Z,100457.55
2022-10-05T11:34:11.793Z,100455.40
2022-10-05T11:37:15.855Z,100456.72
2022-10-05T11:39:55.503Z,100455.53
2022-10-05T11:42:49.333Z,100459.32
2022-10-05T11:45:45.451Z,100466.25
2022-10-05T11:48:30.373Z,100465.66
2022-10-05T11:51:30.120Z,100464.74
2022-10-05T11:54:32.526Z,100457.20
2022-10-05T11:57:18.866Z,100444.14
2022-10-05T12:00:07.023Z,100444.46
2022-10-05T12:02:54.480Z,100443.42
2022-10-05T12:05:53.109Z,100418.66
2022-10-05T12:08:26.666Z,100421.33
2022-10-05T12:11:13.075Z,100412.64
2022-10-05T12:13:56.032Z,100415.23
2022-10-05T12:16:39.694Z,100405.90
2022-10-05T12:19:27.194Z,100410.84
2022-10-05T12:22:04.206Z,100406.54
2022-10-05T12:25:08.063Z,100403.27
2022-10-05T12:27:43.605Z,100396.95
2022-10-05T12:30:18.159Z,100398.34
2022-10-05T12:33:01.731Z,100398.74
2022-10-05T12:35:47.379Z,100404.98
2022-10-05T12:38:38.170Z,100403.61
2022-10-05T12:41:40.547Z,100403.75
2022-10-05T12:44:13.899Z,100406.09
2022-10-05T12:46:57.315Z,100404.39
2022-10-05T12:49:56.836Z,100403.38
2022-10-05T12:52:43.394Z,100400.73
2022-10-05T12:55:15.718Z,100393.98
2022-10-05T12:58:21.966Z,100393.93
2022-10-05T13:00:58.360Z,100394.61
2022-10-05T13:03:36.902Z,100402.30
2022-10-05T13:06:23.195Z,100398.36
2022-10-05T13:09:14.668Z,100396.63
2022-10-05T13:11:48.989Z,100402.02
2022-10-05T13:14:46.602Z,100411.05
2022-10-05T13:17:43.434Z,100403.73
2022-10-05T13:20:24.841Z,100399.67
2022-10-05T13:23:12.732Z,100397.38
2022-10-05T13:26:08.008Z,100385.88
2022-10-05T13:28:59.619Z,100395.09
2022-10-05T13:31:33.222Z,100391.11
2022-10-05T13:34:42.151Z,100392.66
2022-10-05T13:37:24.678Z,100386.71
2022-10-05T13:40:01.169Z,100378.79
2022-10-05T13:42:38.624Z,100373.40
2022-10-05T13:45:18.808Z,100364.92
2022-10-05T13:47:51.326Z,100364.48
2022-10-05T13:50:50.866Z,100358.95
2022-10-05T13:53:35.496Z,100348.48
2022-10-05T13:56:16.087Z,100347.66
2022-10-05T13:59:07.528Z,100345.85
2022-10-05T14:01:49.747Z,100348.77
2022-10-05T14:04:19.736Z,100347.14
2022-10-05T14:06:48.843Z,100347.35
2022-10-05T14:09:19.381Z,100349.65
2022-10-05T14:11:50.360Z,100354.53
2022-10-05T14:14:28.250Z,100355.75
2022-10-05T14:17:00.498Z,100353.96
2022-10-05T14:19:41.367Z,100357.89
2022-10-05T14:22:27.339Z,100358.50
2022-10-05T14:25:02.075Z,100365.02
2022-10-05T14:27:33.660Z,100367.79
2022-10-05T14:30:18.269Z,100365.25
2022-10-05T14:32:57.310Z,100366.41
2022-10-05T14:35:51.280Z,100372.84
2022-10-05T14:38:30.179Z,100367.52
2022-10-05T14:41:19.846Z,100363.60
2022-10-05T14:43:53.141Z,100367.08
2022-10-05T14:46:29.049Z,100368.52
2022-10-05T14:49:21.167Z,100361.16
2022-10-05T14:51:53.787Z,100353.69
2022-10-05T14:54:47.527Z,100341.90
2022-10-05T14:57:44.432Z,100343.96
2022-10-05T15:00:17.482Z,100350.26
2022-10-05T15:03:23.931Z,100347.59
2022-10-05T15:05:58.775Z,100342.27
2022-10-05T15:08:50.711Z,100347.67
2022-10-05T15:11:34.955Z,100343.27
2022-10-05T15:14:13.824Z,100335.14
2022-10-05T15:16:42.421Z,100341.36
2022-10-05T15:19:22.643Z,100349.44
2022-10-05T15:22:10.526Z,100349.96
2022-10-05T15:24:46.102Z,100351.23
2022-10-05T15:27:36.465Z,100344.06
2022-10-05T15:30:23.145Z,100345.86
2022-10-05T15:33:14.518Z,100342.02
2022-10-05T15:36:14.574Z,100339.74
2022-10-05T15:39:03.900Z,100339.58
2022-10-05T15:41:58.918Z,100343.27
2022-10-05T15:44:52.243Z,100338.80
2022-10-05T15:47:28.675Z,100340.00
2022-10-05T15:50:07.505Z,100338.04
2022-10-05T15:52:48.601Z,100333.89
2022-10-05T15:55:35.352Z,100329.98
2022-10-05T15:58:25.599Z,100326.23
2022-10-05T16:01:10.162Z,100323.16
2022-10-05T16:04:09.641Z,100324.45
2022-10-05T16:07:05.620Z,100332.91
2022-10-05T16:10:15.341Z,100336.20
2022-10-05T16:13:14.891Z,100336.47
2022-10-05T16:16:04.451Z,100335.14
2022-10-05T16:18:47.985Z,100326.95
2022-10-05T16:21:44.027Z,100327.45
2022-10-05T16:24:45.802Z,100325.29
2022-10-05T16:27:22.682Z,100327.29
2022-10-05T16:30:09.765Z,100326.51
2022-10-05T16:32:53.596Z,100331.12
2022-10-05T16:35:39.259Z,100332.45
2022-10-05T16:38:19.397Z,100329.81
2022-10-05T16:40:59.652Z,100333.31
2022-10-05T16:43:51.960Z,100330.86
2022-10-05T16:46:36.587Z,100334.06
2022-10-05T16:49:37.121Z,100338.48
2022-10-05T16:52:08.389Z,100336.06
2022-10-05T16:54:57.822Z,100333.68
2022-10-05T16:57:46.355Z,100332.79
2022-10-05T17:00:16.804Z,100332.23
2022-10-05T17:02:51.092Z,100331.98
2022-10-05T17:05:24.761Z,100333.33
2022-10-05T17:08:21.550Z,100334.27
2022-10-05T17:10:49.337Z,100335.16
2022-10-05T17:13:23.614Z,100336.56
2022-10-05T17:16:10.005Z,100335.06
2022-10-05T17:19:09.675Z,100332.73
2022-10-05T17:22:01.937Z,100332.14
2022-10-05T17:24:35.513Z,100335.08
2022-10-05T17:27:32.988Z,100332.50
2022-10-05T17:30:39.742Z,100326.95
2022-10-05T17:33:29.959Z,100324.71
2022-10-05T17:36:17.123Z,100322.91
2022-10-05T17:39:12.461Z,100319.91
2022-10-05T17:41:40.215Z,100318.42
2022-10-05T17:44:19.518Z,100314.11
2022-10-05T17:47:04.768Z,100311.74
2022-10-05T17:50:27.296Z,100310.13
2022-10-05T17:53:42.793Z,100309.97
2022-10-05T17:56:10.368Z,100308.27
2022-10-05T17:58:44.189Z,100308.61
2022-10-05T18:01:25.279Z,100308.59
2022-10-05T18:03:52.923Z,100310.80
2022-10-05T18:06:28.212Z,100305.64
2022-10-05T18:09:30.824Z,100309.50
2022-10-05T18:12:11.168Z,100308.19
2022-10-05T18:15:10.718Z,100308.29
2022-10-05T18:17:46.213Z,100309.64
2022-10-05T18:20:15.155Z,100310.39
2022-10-05T18:22:46.884Z,100308.38
2022-10-05T18:25:47.621Z,100309.41
2022-10-05T18:28:50.796Z,100306.82
2022-10-05T18:31:26.416Z,100308.98
2022-10-05T18:34:26.732Z,100305.95
2022-10-05T18:37:25.847Z,100305.05
2022-10-05T18:40:09.674Z,100304.95
2022-10-05T18:43:03.353Z,100303.98
2022-10-05T18:46:02.952Z,100301.77
2022-10-05T18:49:02.535Z,100305.61
2022-10-05T18:51:51.825Z,100304.12
2022-10-05T18:54:54.415Z,100301.29
2022-10-05T18:57:28.239Z,100296.17
2022-10-05T19:00:17.439Z,100295.05
2022-10-05T19:03:17.806Z,100291.99
2022-10-05T19:06:00.622Z,100290.10
2022-10-05T19:08:32.864Z,100289.59
2022-10-05T19:11:05.713Z,100293.17
2022-10-05T19:13:57.315Z,100292.04
2022-10-05T19:16:27.986Z,100289.58
2022-10-05T19:19:07.541Z,100289.15
2022-10-05T19:21:38.657Z,100292.17
2022-10-05T19:24:16.572Z,100291.39
2022-10-05T19:27:01.481Z,100295.64
2022-10-05T19:29:53.150Z,100297.27
2022-10-05T19:32:52.726Z,100294.27
2022-10-05T19:35:39.041Z,100292.64
2022-10-05T19:38:14.586Z,100292.04
2022-10-05T19:40:58.998Z,100296.33
2022-10-05T19:43:35.786Z,100294.67
2022-10-05T19:46:22.188Z,100296.81
2022-10-05T19:48:54.250Z,100291.16
2022-10-05T19:51:29.487Z,100294.39
2022-10-05T19:54:21.775Z,100296.90
2022-10-05T19:56:53.019Z,100296.29
2022-10-05T19:59:27.252Z,100298.43
2022-10-05T20:01:56.625Z,100301.81
2022-10-05T20:04:41.362Z,100302.21
2022-10-05T20:07:15.574Z,100307.27
2022-10-05T20:09:58.490Z,100306.03
2022-10-05T20:12:50.501Z,100309.73
2022-10-05T20:15:37.129Z,100308.25
2022-10-05T20:18:52.873Z,100311.08
2022-10-05T20:21:57.283Z,100310.14
2022-10-05T20:24:29.612Z,100309.67
2022-10-05T20:27:02.212Z,100314.73
2022-10-05T20:29:41.095Z,100318.51
2022-10-05T20:32:15.232Z,100319.89
2022-10-05T20:34:46.373Z,100322.67
2022-10-05T20:37:16.402Z,100326.48
2022-10-05T20:39:45.128Z,100329.46
2022-10-05T20:42:12.675Z,100330.37
2022-10-05T20:44:40.761Z,100334.18
2022-10-05T20:47:11.254Z,100330.39
2022-10-05T20:49:44.461Z,100332.16
2022-10-05T20:52:15.069Z,100332.17
2022-10-05T20:54:42.801Z,100326.96
2022-10-05T20:57:10.453Z,100330.14
2022-10-05T20:59:38.016Z,100328.80
2022-10-05T21:02:06.169Z,100330.91
2022-10-05T21:04:43.098Z,100330.25
2022-10-05T21:07:10.884Z,100330.48
2022-10-05T21:09:39.512Z,100327.05
2022-10-05T21:12:07.059Z,100329.33
2022-10-05T21:14:36.685Z,100326.40
2022-10-05T21:17:07.556Z,100325.74
2022-10-05T21:19:40.507Z,100327.87
2022-10-05T21:22:10.190Z,100328.74
2022-10-05T21:24:39.400Z,100331.88
2022-10-05T21:27:09.553Z,100329.61
2022-10-05T21:29:37.286Z,100330.02
2022-10-05T21:32:09.059Z,100327.29
2022-10-05T21:34:37.882Z,100325.10
2022-10-05T21:37:05.513Z,100324.23
2022-10-05T21:39:34.925Z,100323.02
2022-10-05T21:42:02.825Z,100325.45
2022-10-05T21:44:30.397Z,100329.98
2022-10-05T21:46:58.054Z,100327.92
2022-10-05T21:49:27.115Z,100331.29
2022-10-05T21:51:54.849Z,100331.52
2022-10-05T21:54:23.821Z,100334.85
2022-10-05T21:56:55.234Z,100334.55
2022-10-05T21:59:29.007Z,100332.30
2022-10-05T22:01:56.618Z,100328.48
2022-10-05T22:04:24.179Z,100330.67
2022-10-05T22:06:51.752Z,100326.09
2022-10-05T22:09:19.287Z,100330.15
2022-10-05T22:11:48.864Z,100328.43
2022-10-05T22:14:16.550Z,100331.23
2022-10-05T22:16:44.791Z,100333.30
2022-10-05T22:19:18.919Z,100331.04
2022-10-05T22:21:46.592Z,100329.17
2022-10-05T22:24:14.206Z,100325.38
2022-10-05T22:26:47.343Z,100326.77
2022-10-05T22:29:16.860Z,100322.75
2022-10-05T22:31:49.185Z,100325.73
2022-10-05T22:34:18.841Z,100322.06
2022-10-05T22:36:47.547Z,100321.73
2022-10-05T22:39:16.500Z,100324.73
2022-10-05T22:41:44.075Z,100331.36
2022-10-05T22:44:11.674Z,100324.59
2022-10-05T22:46:39.753Z,100322.55
2022-10-05T22:49:07.352Z,100324.14
2022-10-05T22:51:35.029Z,100321.52
2022-10-05T22:54:02.659Z,100318.63
2022-10-05T22:56:30.282Z,100321.32
2022-10-05T22:58:57.944Z,100322.41
2022-10-05T23:01:25.574Z,100324.34
2022-10-05T23:03:54.470Z,100328.00
2022-10-05T23:06:22.476Z,100329.90
2022-10-05T23:08:50.409Z,100326.42
2022-10-05T23:11:26.289Z,100330.09
2022-10-05T23:13:57.144Z,100328.37
2022-10-05T23:16:27.108Z,100328.22
2022-10-05T23:18:56.355Z,100329.13
2022-10-05T23:21:27.669Z,100328.80
2022-10-05T23:23:55.836Z,100330.91
2022-10-05T23:26:25.187Z,100334.74
2022-10-05T23:28:52.848Z,100336.50
2022-10-05T23:31:26.947Z,100336.52
2022-10-05T23:33:55.434Z,100341.95
2022-10-05T23:36:31.665Z,100339.54
2022-10-05T23:39:00.163Z,100339.43
2022-10-05T23:41:27.727Z,100342.60
2022-10-05T23:43:55.396Z,100340.56
2022-10-05T23:46:23.248Z,100341.30
2022-10-05T23:48:50.970Z,100335.78
2022-10-05T23:51:18.729Z,100337.40
2022-10-05T23:53:46.336Z,100335.95
2022-10-05T23:56:13.910Z,100334.97
2022-10-05T23:58:41.500Z,100338.49
